createdAt,value
2019-05-16T00:00:58.856Z,60.30
2019-05-16T00:03:28.301Z,59.80
2019-05-16T00:05:58.416Z,60.00
2019-05-16T00:08:28.529Z,59.80
2019-05-16T00:10:58.584Z,59.10
2019-05-16T00:13:28.123Z,59.50
2019-05-16T00:15:58.784Z,59.20
2019-05-16T00:18:28.415Z,59.30
2019-05-16T00:20:58.616Z,59.00
2019-05-16T00:23:28.838Z,59.00
2019-05-16T00:25:58.684Z,59.80
2019-05-16T00:28:28.705Z,60.90
2019-05-16T00:31:00.804Z,60.90
2019-05-16T00:33:29.796Z,61.10
2019-05-16T00:36:03.369Z,60.40
2019-05-16T00:38:29.727Z,59.50
2019-05-16T00:40:59.168Z,59.60
2019-05-16T00:43:28.912Z,59.80
2019-05-16T00:45:59.062Z,60.10
2019-05-16T00:48:28.886Z,60.50
2019-05-16T00:50:58.490Z,60.10
2019-05-16T00:53:28.939Z,61.00
2019-05-16T00:56:00.478Z,60.10
2019-05-16T00:58:31.277Z,60.10
2019-05-16T01:01:00.316Z,61.00
2019-05-16T01:03:29.414Z,60.30
2019-05-16T01:05:58.713Z,61.00
2019-05-16T01:08:28.383Z,61.60
2019-05-16T01:10:58.654Z,62.10
2019-05-16T01:13:28.113Z,61.20
2019-05-16T01:15:57.962Z,61.60
2019-05-16T01:18:28.670Z,61.60
2019-05-16T01:20:58.617Z,63.00
2019-05-16T01:23:28.313Z,64.60
2019-05-16T01:25:58.803Z,63.70
2019-05-16T01:28:28.407Z,62.20
2019-05-16T01:30:58.124Z,62.70
2019-05-16T01:33:28.130Z,63.70
2019-05-16T01:35:58.446Z,63.20
2019-05-16T01:38:28.524Z,63.00
2019-05-16T01:40:58.456Z,63.00
2019-05-16T01:43:28.381Z,64.20
2019-05-16T01:45:57.898Z,65.20
2019-05-16T01:48:29.225Z,64.20
2019-05-16T01:50:58.426Z,63.80
2019-05-16T01:53:27.916Z,64.40
2019-05-16T01:55:58.042Z,63.00
2019-05-16T01:58:28.973Z,62.80
2019-05-16T02:01:11.700Z,63.00
2019-05-16T02:03:28.882Z,64.10
2019-05-16T02:05:58.578Z,64.70
2019-05-16T02:08:28.696Z,65.40
2019-05-16T02:10:58.343Z,64.20
2019-05-16T02:13:28.566Z,64.20
2019-05-16T02:15:59.274Z,65.20
2019-05-16T02:18:30.215Z,64.90
2019-05-16T02:21:01.401Z,64.80
2019-05-16T02:23:30.219Z,64.70
2019-05-16T02:25:59.265Z,64.20
2019-05-16T02:28:33.691Z,65.60
2019-05-16T02:31:01.366Z,64.40
2019-05-16T02:33:31.735Z,64.90
2019-05-16T02:36:01.813Z,65.50
2019-05-16T02:38:31.683Z,64.90
2019-05-16T02:41:03.027Z,63.90
2019-05-16T02:43:31.902Z,63.30
2019-05-16T02:46:01.491Z,62.80
2019-05-16T02:48:31.836Z,62.80
2019-05-16T02:51:02.072Z,63.00
2019-05-16T02:53:31.381Z,64.60
2019-05-16T02:56:01.478Z,65.30
2019-05-16T02:58:31.062Z,65.00
2019-05-16T03:01:01.927Z,65.00
2019-05-16T03:03:31.724Z,64.80
2019-05-16T03:06:02.745Z,64.30
2019-05-16T03:08:33.158Z,64.20
2019-05-16T03:11:02.713Z,63.60
2019-05-16T03:13:35.157Z,62.20
2019-05-16T03:16:07.195Z,62.90
2019-05-16T03:18:41.124Z,62.90
2019-05-16T03:21:13.234Z,64.20
2019-05-16T03:23:42.380Z,65.30
2019-05-16T03:26:11.875Z,65.80
2019-05-16T03:28:41.485Z,66.10
2019-05-16T03:31:14.773Z,66.20
2019-05-16T03:33:50.292Z,65.20
2019-05-16T03:36:14.563Z,64.00
2019-05-16T03:38:42.893Z,64.00
2019-05-16T03:41:11.925Z,64.30
2019-05-16T03:43:41.489Z,64.30
2019-05-16T03:46:11.939Z,64.40
2019-05-16T03:48:41.201Z,64.80
2019-05-16T03:51:11.313Z,64.60
2019-05-16T03:53:40.716Z,63.90
2019-05-16T03:56:11.062Z,63.70
2019-05-16T03:58:41.427Z,64.40
2019-05-16T04:01:11.610Z,64.10
2019-05-16T04:03:41.484Z,64.40
2019-05-16T04:06:12.017Z,64.30
2019-05-16T04:08:41.852Z,64.00
2019-05-16T04:11:11.776Z,65.30
2019-05-16T04:13:41.409Z,66.20
2019-05-16T04:16:11.881Z,66.90
2019-05-16T04:18:42.168Z,66.90
2019-05-16T04:21:11.990Z,67.10
2019-05-16T04:23:41.931Z,66.10
2019-05-16T04:26:11.624Z,65.90
2019-05-16T04:28:41.398Z,66.00
2019-05-16T04:31:11.113Z,66.10
2019-05-16T04:33:41.682Z,66.30
2019-05-16T04:36:11.242Z,66.80
2019-05-16T04:38:45.130Z,67.10
2019-05-16T04:41:11.695Z,67.20
2019-05-16T04:43:41.755Z,68.20
2019-05-16T04:46:11.732Z,68.40
2019-05-16T04:48:41.788Z,68.40
2019-05-16T04:51:11.550Z,68.10
2019-05-16T04:53:42.446Z,68.70
2019-05-16T04:56:11.279Z,68.80
2019-05-16T04:58:41.031Z,67.50
2019-05-16T05:01:11.209Z,67.50
2019-05-16T05:03:42.549Z,67.20
2019-05-16T05:06:11.437Z,66.60
2019-05-16T05:08:53.897Z,65.60
2019-05-16T05:11:15.087Z,65.80
2019-05-16T05:13:44.112Z,66.60
2019-05-16T05:16:13.148Z,67.80
2019-05-16T05:18:42.102Z,67.20
2019-05-16T05:21:11.793Z,66.60
2019-05-16T05:23:41.109Z,66.70
2019-05-16T05:26:10.870Z,66.10
2019-05-16T05:28:40.281Z,64.70
2019-05-16T05:31:10.788Z,64.40
2019-05-16T05:33:41.638Z,64.30
2019-05-16T05:36:12.307Z,64.40
2019-05-16T05:38:41.828Z,64.40
2019-05-16T05:41:11.121Z,65.20
2019-05-16T05:43:40.114Z,64.30
2019-05-16T05:46:11.173Z,62.70
2019-05-16T05:48:41.094Z,63.50
2019-05-16T05:51:11.275Z,62.40
2019-05-16T05:53:40.673Z,62.70
2019-05-16T05:56:11.300Z,62.20
2019-05-16T05:58:40.780Z,61.70
2019-05-16T06:01:11.184Z,60.60
2019-05-16T06:03:40.679Z,60.50
2019-05-16T06:06:10.596Z,59.50
2019-05-16T06:08:40.942Z,59.80
2019-05-16T06:11:10.413Z,59.30
2019-05-16T06:13:40.455Z,59.00
2019-05-16T06:16:10.859Z,57.90
2019-05-16T06:18:40.922Z,57.20
2019-05-16T06:21:11.497Z,56.80
2019-05-16T06:23:40.960Z,56.60
2019-05-16T06:26:12.134Z,55.90
2019-05-16T06:28:41.218Z,56.90
2019-05-16T06:31:14.066Z,54.60
2019-05-16T06:33:41.294Z,54.00
2019-05-16T06:36:10.973Z,54.40
2019-05-16T06:38:40.604Z,53.80
2019-05-16T06:41:10.698Z,54.40
2019-05-16T06:43:40.122Z,51.40
2019-05-16T06:46:11.010Z,54.00
2019-05-16T06:48:39.993Z,49.20
2019-05-16T06:51:10.771Z,49.80
2019-05-16T06:53:40.473Z,48.30
2019-05-16T06:56:10.483Z,50.60
2019-05-16T06:58:47.603Z,46.30
2019-05-16T07:01:10.578Z,47.30
2019-05-16T07:03:40.090Z,49.80
2019-05-16T07:06:26.248Z,47.10
2019-05-16T07:08:40.561Z,47.00
2019-05-16T07:11:10.526Z,46.80
2019-05-16T07:13:40.614Z,44.70
2019-05-16T07:16:09.861Z,41.70
2019-05-16T07:18:40.197Z,42.40
2019-05-16T07:21:10.888Z,41.60
2019-05-16T07:23:40.540Z,42.50
2019-05-16T07:26:10.053Z,42.60
2019-05-16T07:28:40.593Z,40.60
2019-05-16T07:31:17.544Z,39.10
2019-05-16T07:33:40.822Z,42.20
2019-05-16T07:36:10.107Z,39.70
2019-05-16T07:38:40.078Z,39.80
2019-05-16T07:41:11.045Z,39.90
2019-05-16T07:43:40.207Z,41.40
2019-05-16T07:46:11.144Z,37.70
2019-05-16T07:48:40.509Z,39.50
2019-05-16T07:51:10.500Z,39.80
2019-05-16T07:53:40.321Z,36.50
2019-05-16T07:56:10.574Z,38.80
2019-05-16T07:58:41.320Z,38.00
2019-05-16T08:01:12.572Z,38.90
2019-05-16T08:03:44.133Z,39.40
2019-05-16T08:06:12.363Z,37.60
2019-05-16T08:08:41.323Z,37.70
2019-05-16T08:11:12.236Z,37.90
2019-05-16T08:13:40.944Z,37.00
2019-05-16T08:16:10.360Z,39.20
2019-05-16T08:18:44.732Z,37.50
2019-05-16T08:21:12.794Z,37.90
2019-05-16T08:23:41.339Z,35.90
2019-05-16T08:26:10.787Z,34.80
2019-05-16T08:28:41.387Z,35.00
2019-05-16T08:33:20.809Z,34.10
2019-05-16T08:33:41.902Z,35.00
2019-05-16T08:36:11.902Z,36.60
2019-05-16T08:38:43.350Z,34.10
2019-05-16T08:41:16.347Z,33.90
2019-05-16T08:43:42.642Z,36.20
2019-05-16T08:48:42.818Z,32.40
2019-05-16T08:51:12.342Z,33.70
2019-05-16T08:53:43.225Z,31.70
2019-05-16T08:56:13.214Z,33.30
2019-05-16T08:58:42.502Z,32.90
2019-05-16T09:01:14.742Z,32.60
2019-05-16T09:03:42.815Z,31.60
2019-05-16T09:06:12.021Z,30.60
2019-05-16T09:08:41.004Z,29.90
2019-05-16T09:10:30.558Z,34.20
2019-05-16T09:11:30.087Z,27.70
2019-05-16T09:13:40.763Z,29.60
2019-05-16T09:16:09.816Z,29.60
2019-05-16T09:18:41.305Z,29.00
2019-05-16T09:21:09.493Z,30.10
2019-05-16T09:23:38.632Z,28.50
2019-05-16T09:26:07.974Z,30.80
2019-05-16T09:28:38.919Z,29.20
2019-05-16T09:31:08.286Z,30.50
2019-05-16T09:33:37.618Z,29.20
2019-05-16T09:36:08.190Z,29.70
2019-05-16T09:38:42.781Z,29.20
2019-05-16T09:41:08.508Z,29.90
2019-05-16T09:43:38.813Z,28.70
2019-05-16T09:46:08.215Z,29.20
2019-05-16T09:48:38.182Z,29.40
2019-05-16T09:51:07.912Z,29.80
2019-05-16T09:53:37.105Z,28.80
2019-05-16T09:56:07.322Z,31.50
2019-05-16T09:58:37.241Z,29.50
2019-05-16T10:01:10.303Z,30.00
2019-05-16T10:03:39.335Z,29.00
2019-05-16T10:06:08.493Z,30.70
2019-05-16T10:08:37.788Z,29.30
2019-05-16T10:11:07.006Z,30.50
2019-05-16T10:13:37.584Z,30.70
2019-05-16T10:16:07.311Z,29.50
2019-05-16T10:18:37.093Z,27.90
2019-05-16T10:21:08.089Z,27.80
2019-05-16T10:23:37.429Z,27.50
2019-05-16T10:26:06.632Z,27.70
2019-05-16T10:28:38.378Z,28.20
2019-05-16T10:31:07.417Z,28.80
2019-05-16T10:33:39.005Z,29.80
2019-05-16T10:36:08.367Z,29.60
2019-05-16T10:38:37.950Z,32.60
2019-05-16T10:41:07.433Z,31.30
2019-05-16T10:43:37.034Z,31.30
2019-05-16T10:46:06.619Z,32.60
2019-05-16T10:48:37.648Z,29.60
2019-05-16T10:51:07.751Z,31.90
2019-05-16T10:54:00.457Z,31.60
2019-05-16T10:56:08.372Z,31.80
2019-05-16T10:58:58.015Z,30.80
2019-05-16T11:01:22.106Z,30.90
2019-05-16T11:03:39.233Z,32.70
2019-05-16T11:06:17.418Z,28.80
2019-05-16T11:08:39.626Z,29.20
2019-05-16T11:11:09.073Z,31.40
2019-05-16T11:13:38.106Z,28.80
2019-05-16T11:16:09.504Z,28.60
2019-05-16T11:18:37.823Z,28.70
2019-05-16T11:21:06.777Z,28.90
2019-05-16T11:23:36.720Z,28.60
2019-05-16T11:26:06.978Z,29.30
2019-05-16T11:28:36.794Z,28.30
2019-05-16T11:31:07.743Z,27.00
2019-05-16T11:33:37.131Z,30.10
2019-05-16T11:36:08.171Z,28.80
2019-05-16T11:38:38.001Z,28.40
2019-05-16T11:41:07.617Z,29.80
2019-05-16T11:43:36.958Z,29.20
2019-05-16T11:46:06.011Z,28.10
2019-05-16T11:48:37.377Z,28.10
2019-05-16T11:51:07.387Z,28.30
2019-05-16T11:53:37.797Z,28.00
2019-05-16T11:56:08.326Z,28.90
2019-05-16T11:58:38.091Z,29.70
2019-05-16T12:01:07.688Z,33.40
2019-05-16T12:03:37.547Z,30.00
2019-05-16T12:06:10.712Z,28.10
2019-05-16T12:08:37.900Z,28.40
2019-05-16T12:11:07.400Z,29.50
2019-05-16T12:13:37.025Z,27.70
2019-05-16T12:16:07.672Z,28.00
2019-05-16T12:18:37.470Z,28.50
2019-05-16T12:21:07.947Z,28.40
2019-05-16T12:23:37.513Z,31.30
2019-05-16T12:26:07.699Z,31.20
2019-05-16T12:28:37.641Z,30.60
2019-05-16T12:31:07.354Z,30.40
2019-05-16T12:33:37.705Z,29.80
2019-05-16T12:36:07.675Z,29.00
2019-05-16T12:38:37.915Z,30.60
2019-05-16T12:41:07.654Z,30.20
2019-05-16T12:43:45.925Z,30.40
2019-05-16T12:46:07.732Z,28.60
2019-05-16T12:48:37.415Z,30.00
2019-05-16T12:51:08.332Z,29.70
2019-05-16T12:53:37.466Z,32.60
2019-05-16T12:56:07.406Z,32.40
2019-05-16T12:58:40.913Z,28.90
2019-05-16T13:01:07.891Z,31.60
2019-05-16T13:03:37.875Z,29.30
2019-05-16T13:06:07.104Z,31.70
2019-05-16T13:08:37.510Z,29.40
2019-05-16T13:11:07.419Z,30.30
2019-05-16T13:13:37.507Z,33.10
2019-05-16T13:16:07.739Z,31.00
2019-05-16T13:18:37.279Z,32.00
2019-05-16T13:21:06.870Z,31.70
2019-05-16T13:23:36.118Z,32.40
2019-05-16T13:26:07.335Z,32.20
2019-05-16T13:28:37.859Z,33.80
2019-05-16T13:31:07.852Z,33.90
2019-05-16T13:33:37.055Z,33.50
2019-05-16T13:36:07.450Z,34.50
2019-05-16T13:38:36.782Z,33.00
2019-05-16T13:41:07.444Z,32.40
2019-05-16T13:43:37.539Z,33.50
2019-05-16T13:46:07.327Z,33.70
2019-05-16T13:48:37.698Z,33.90
2019-05-16T13:51:14.671Z,35.70
2019-05-16T13:53:37.724Z,32.50
2019-05-16T13:56:12.564Z,33.30
2019-05-16T13:58:37.687Z,33.50
2019-05-16T14:01:07.895Z,32.80
2019-05-16T14:03:37.477Z,34.40
2019-05-16T14:06:07.299Z,34.10
2019-05-16T14:08:37.456Z,33.90
2019-05-16T14:11:10.231Z,35.30
2019-05-16T14:13:37.721Z,34.30
2019-05-16T14:16:07.347Z,35.70
2019-05-16T14:18:37.859Z,33.40
2019-05-16T14:21:07.520Z,34.60
2019-05-16T14:23:38.012Z,34.80
2019-05-16T14:26:07.519Z,33.80
2019-05-16T14:28:37.473Z,34.80
2019-05-16T14:31:07.566Z,34.50
2019-05-16T14:33:37.191Z,32.70
2019-05-16T14:36:07.329Z,33.00
2019-05-16T14:38:37.450Z,34.00
2019-05-16T14:41:08.087Z,33.40
2019-05-16T14:43:37.412Z,32.40
2019-05-16T14:46:09.407Z,32.70
2019-05-16T14:48:37.424Z,32.10
2019-05-16T14:51:06.490Z,33.90
2019-05-16T14:53:37.926Z,33.60
2019-05-16T14:56:07.202Z,34.00
2019-05-16T14:58:37.790Z,34.10
2019-05-16T15:01:07.512Z,33.80
2019-05-16T15:03:37.085Z,33.50
2019-05-16T15:06:08.710Z,33.50
2019-05-16T15:08:37.859Z,34.10
2019-05-16T15:11:07.622Z,34.70
2019-05-16T15:13:36.744Z,34.60
2019-05-16T15:16:07.565Z,34.10
2019-05-16T15:18:38.450Z,36.10
2019-05-16T15:21:08.779Z,35.30
2019-05-16T15:23:38.364Z,34.40
2019-05-16T15:26:09.468Z,35.30
2019-05-16T15:28:38.116Z,35.20
2019-05-16T15:31:07.459Z,36.70
2019-05-16T15:33:36.746Z,35.40
2019-05-16T15:36:08.535Z,36.00
2019-05-16T15:38:37.640Z,35.80
2019-05-16T15:41:08.198Z,36.20
2019-05-16T15:43:37.660Z,36.00
2019-05-16T15:46:08.300Z,35.50
2019-05-16T15:48:37.549Z,35.00
2019-05-16T15:51:08.729Z,36.60
2019-05-16T15:53:38.961Z,37.20
2019-05-16T15:56:10.553Z,37.70
2019-05-16T15:58:39.099Z,36.90
2019-05-16T16:01:08.178Z,35.90
2019-05-16T16:03:38.146Z,36.40
2019-05-16T16:06:07.549Z,37.00
2019-05-16T16:08:37.389Z,38.10
2019-05-16T16:11:07.691Z,36.40
2019-05-16T16:13:37.422Z,38.20
2019-05-16T16:16:10.289Z,35.80
2019-05-16T16:18:37.927Z,38.30
2019-05-16T16:21:08.226Z,38.70
2019-05-16T16:23:37.601Z,37.50
2019-05-16T16:26:07.232Z,37.60
2019-05-16T16:28:38.111Z,37.60
2019-05-16T16:31:07.774Z,37.70
2019-05-16T16:33:37.616Z,37.80
2019-05-16T16:36:07.849Z,37.80
2019-05-16T16:38:37.360Z,37.70
2019-05-16T16:41:07.991Z,38.30
2019-05-16T16:43:37.709Z,38.90
2019-05-16T16:46:12.529Z,39.60
2019-05-16T16:48:38.097Z,38.30
2019-05-16T16:51:07.091Z,38.50
2019-05-16T16:53:37.823Z,38.80
2019-05-16T16:56:07.689Z,39.80
2019-05-16T16:58:37.381Z,38.90
2019-05-16T17:01:07.448Z,39.00
2019-05-16T17:03:36.690Z,39.60
2019-05-16T17:06:06.078Z,40.80
2019-05-16T17:08:37.368Z,39.60
2019-05-16T17:11:07.109Z,40.70
2019-05-16T17:13:36.755Z,39.80
2019-05-16T17:16:21.146Z,39.70
2019-05-16T17:18:37.008Z,40.20
2019-05-16T17:21:07.930Z,40.50
2019-05-16T17:23:37.323Z,40.90
2019-05-16T17:26:07.253Z,41.80
2019-05-16T17:28:37.259Z,40.40
2019-05-16T17:31:07.287Z,40.50
2019-05-16T17:33:38.112Z,40.00
2019-05-16T17:36:09.263Z,40.90
2019-05-16T17:38:37.954Z,41.40
2019-05-16T17:41:07.755Z,41.50
2019-05-16T17:43:36.877Z,42.40
2019-05-16T17:46:07.269Z,42.80
2019-05-16T17:48:37.961Z,42.60
2019-05-16T17:51:07.436Z,42.30
2019-05-16T17:53:37.426Z,42.20
2019-05-16T17:56:07.269Z,41.60
2019-05-16T17:58:36.226Z,41.80
2019-05-16T18:01:07.058Z,41.70
2019-05-16T18:03:37.318Z,42.80
2019-05-16T18:06:07.145Z,42.80
2019-05-16T18:08:37.486Z,42.20
2019-05-16T18:11:07.284Z,43.00
2019-05-16T18:13:37.189Z,43.30
2019-05-16T18:16:07.573Z,43.00
2019-05-16T18:18:37.875Z,42.70
2019-05-16T18:21:07.201Z,42.70
2019-05-16T18:23:37.025Z,43.40
2019-05-16T18:26:07.724Z,42.60
2019-05-16T18:28:37.218Z,43.50
2019-05-16T18:31:06.366Z,43.60
2019-05-16T18:33:37.184Z,42.90
2019-05-16T18:36:07.609Z,43.30
2019-05-16T18:38:37.395Z,43.30
2019-05-16T18:41:07.945Z,43.30
2019-05-16T18:43:37.049Z,43.20
2019-05-16T18:46:07.231Z,43.50
2019-05-16T18:48:36.757Z,43.80
2019-05-16T18:51:06.842Z,43.60
2019-05-16T18:53:37.413Z,44.80
2019-05-16T18:56:08.061Z,44.40
2019-05-16T18:58:37.313Z,43.80
2019-05-16T19:01:06.835Z,44.00
2019-05-16T19:03:35.897Z,44.10
2019-05-16T19:06:07.565Z,44.30
2019-05-16T19:08:36.474Z,45.20
2019-05-16T19:11:07.483Z,45.70
2019-05-16T19:13:37.181Z,46.00
2019-05-16T19:16:07.203Z,45.10
2019-05-16T19:18:37.064Z,44.80
2019-05-16T19:21:07.508Z,45.30
2019-05-16T19:23:37.591Z,45.50
2019-05-16T19:26:07.345Z,47.20
2019-05-16T19:28:37.509Z,46.00
2019-05-16T19:31:06.844Z,46.10
2019-05-16T19:33:35.825Z,45.60
2019-05-16T19:36:07.115Z,46.10
2019-05-16T19:38:37.502Z,46.10
2019-05-16T19:41:08.107Z,46.40
2019-05-16T19:43:37.180Z,47.10
2019-05-16T19:46:06.513Z,47.20
2019-05-16T19:48:37.088Z,46.80
2019-05-16T19:51:07.371Z,46.90
2019-05-16T19:53:36.908Z,46.30
2019-05-16T19:56:07.239Z,46.70
2019-05-16T19:58:37.270Z,47.20
2019-05-16T20:01:07.016Z,47.20
2019-05-16T20:03:36.525Z,47.30
2019-05-16T20:06:07.557Z,47.50
2019-05-16T20:08:37.412Z,47.30
2019-05-16T20:11:06.982Z,48.20
2019-05-16T20:13:36.759Z,47.80
2019-05-16T20:16:06.263Z,48.30
2019-05-16T20:18:37.239Z,48.00
2019-05-16T20:21:06.987Z,48.00
2019-05-16T20:23:37.542Z,48.40
2019-05-16T20:26:07.820Z,48.20
2019-05-16T20:28:37.236Z,49.20
2019-05-16T20:31:07.934Z,49.80
2019-05-16T20:33:37.763Z,50.40
2019-05-16T20:36:09.449Z,50.60
2019-05-16T20:38:37.858Z,50.50
2019-05-16T20:41:07.803Z,50.90
2019-05-16T20:43:37.061Z,51.90
2019-05-16T20:46:07.290Z,52.70
2019-05-16T20:48:37.381Z,53.60
2019-05-16T20:51:07.234Z,53.80
2019-05-16T20:53:37.490Z,54.60
2019-05-16T20:56:06.866Z,55.60
2019-05-16T20:58:35.938Z,54.50
2019-05-16T21:01:06.984Z,53.90
2019-05-16T21:03:37.800Z,54.20
2019-05-16T21:06:08.446Z,54.20
2019-05-16T21:08:37.199Z,54.10
2019-05-16T21:11:06.612Z,54.00
2019-05-16T21:13:35.674Z,54.30
2019-05-16T21:16:07.060Z,54.70
2019-05-16T21:18:37.668Z,55.20
2019-05-16T21:21:07.639Z,55.30
2019-05-16T21:23:36.930Z,55.70
2019-05-16T21:26:06.529Z,56.30
2019-05-16T21:28:36.923Z,56.60
2019-05-16T21:31:07.415Z,57.60
2019-05-16T21:33:37.151Z,55.70
2019-05-16T21:36:07.194Z,54.90
2019-05-16T21:38:36.532Z,54.90
2019-05-16T21:41:07.242Z,54.90
2019-05-16T21:43:37.672Z,55.50
2019-05-16T21:46:07.475Z,55.80
2019-05-16T21:48:37.097Z,56.90
2019-05-16T21:51:07.962Z,56.70
2019-05-16T21:53:37.131Z,56.10
2019-05-16T21:56:07.024Z,55.40
2019-05-16T21:58:37.024Z,55.90
2019-05-16T22:01:08.811Z,54.30
2019-05-16T22:03:37.841Z,54.10
2019-05-16T22:06:08.002Z,54.10
2019-05-16T22:08:37.300Z,54.20
2019-05-16T22:11:06.818Z,53.60
2019-05-16T22:13:37.057Z,54.10
2019-05-16T22:16:08.064Z,54.10
2019-05-16T22:18:38.550Z,54.40
2019-05-16T22:21:08.099Z,53.60
2019-05-16T22:23:37.473Z,53.70
2019-05-16T22:26:07.599Z,53.60
2019-05-16T22:28:37.477Z,53.00
2019-05-16T22:31:07.461Z,53.70
2019-05-16T22:33:37.467Z,53.40
2019-05-16T22:36:07.146Z,53.80
2019-05-16T22:38:36.624Z,53.70
2019-05-16T22:41:07.277Z,54.40
2019-05-16T22:43:37.477Z,53.20
2019-05-16T22:46:09.603Z,52.60
2019-05-16T22:48:37.506Z,52.70
2019-05-16T22:51:07.767Z,52.70
2019-05-16T22:53:36.995Z,52.70
2019-05-16T22:56:07.444Z,53.50
2019-05-16T22:58:36.828Z,53.50
2019-05-16T23:01:07.220Z,53.40
2019-05-16T23:03:37.951Z,53.70
2019-05-16T23:06:07.650Z,53.90
2019-05-16T23:08:37.038Z,54.60
2019-05-16T23:11:07.303Z,54.90
2019-05-16T23:13:36.601Z,54.20
2019-05-16T23:16:06.737Z,54.70
2019-05-16T23:18:37.582Z,55.50
2019-05-16T23:21:06.681Z,55.40
2019-05-16T23:23:37.254Z,56.10
2019-05-16T23:26:06.787Z,55.90
2019-05-16T23:28:36.847Z,55.70
2019-05-16T23:31:06.403Z,55.60
2019-05-16T23:33:36.572Z,56.10
2019-05-16T23:36:07.248Z,56.00
2019-05-16T23:38:36.900Z,55.90
2019-05-16T23:41:06.774Z,56.10
2019-05-16T23:43:37.387Z,56.30
2019-05-16T23:46:07.167Z,56.40
2019-05-16T23:48:36.630Z,56.30
2019-05-16T23:51:07.771Z,56.60
2019-05-16T23:53:37.287Z,56.30
2019-05-16T23:56:07.420Z,57.00
2019-05-16T23:58:37.231Z,57.20
